aviador You're here:

SACO Decoded Metar

CORDOBA in ARGENTINA
Report Time2017-08-24 06:00:00
UTC Time2017-08-24 06:58:03
Flight Rules vfr VFR
Wind340° at 03 kt
W.Decomp.*RWY 36: 2.9 kt HW 0.9 kt LCW
RWY 05: 1.2 kt HW 2.8 kt LCW
W.Rank340° ranks 6
Current wind is below 340° avg. (6.2)
Visibility9999 m
Phenomena:N/A
Clouds:N/A
Expected CloudBase > 1,600 ft AGL from Temp-Dew spread
CeilingNone
Temp06°C (ISA -6)
Dew Point02°C (76% RH)
AAT3.3°C
QNH1009 hPa
Density Alt1,083 ft
Elevation1,555 ft
Report Wrong Elevation
Raw Report
SACO 240600Z 34003KT CAVOK 06/02 Q1009=

Extra information for SACO:More info

Metar Taf Metar & Taf Last 4 Metars F.Rules Stats Wind Profile Meteogram Temp Stats Airport Information Weather charts Add Link Nearby VenuesMetar ALERT Operation Metar Decoded Social comments